Wetterdaten: Woche 22.02.16 - 28.02.16 (KW8)
Datum Zeit Temp. Aussen Temp. o. S. +5cm Feuchte Auss BlattFeu 1 Luftdruck Regen Sonnenschein Regendauer Solar Windben Empfang
22.02.2016 00:00 11,4 C 11,6 C 9,8 C 85 % 0 lf 1007,2 hPa 0,0 l/m 0,00 h 0,00 h 0 W/m 47,2 km/h (6 Bft) 97,62 %
22.02.2016 01:00 11,3 C 11,6 C 9,8 C 84 % 0 lf 1006,9 hPa 0,0 l/m 0,00 h 0,00 h 0 W/m 42,7 km/h (6 Bft) 98,36 %
22.02.2016 02:00 11,3 C 11,6 C 9,9 C 83 % 0 lf 1006,5 hPa 0,0 l/m 0,00 h 0,00 h 0 W/m 40,3 km/h (6 Bft) 93,10 %
22.02.2016 03:00 11,0 C 10,9 C 9,3 C 84 % 0 lf 1006,4 hPa 0,0 l/m 0,00 h 0,00 h 0 W/m 42,2 km/h (6 Bft) 96,79 %
22.02.2016 04:00 10,3 C 10,1 C 8,9 C 89 % 0 lf 1006,2 hPa 0,0 l/m 0,00 h 0,03 h 0 W/m 43,6 km/h (6 Bft) 97,05 %
22.02.2016 05:00 10,1 C 10,4 C 8,9 C 90 % 0 lf 1006,1 hPa 0,0 l/m 0,00 h 0,03 h 0 W/m 43,4 km/h (6 Bft) 94,95 %
22.02.2016 06:00 10,0 C 9,8 C 8,2 C 91 % 9 lf 1006,0 hPa 0,0 l/m 0,00 h 0,63 h 0 W/m 42,7 km/h (6 Bft) 95,66 %
22.02.2016 07:00 9,8 C 10,0 C 8,5 C 92 % 7 lf 1005,7 hPa 0,0 l/m 0,00 h 0,13 h 6 W/m 42,2 km/h (6 Bft) 97,15 %
22.02.2016 08:00 9,9 C 9,6 C 8,3 C 92 % 7 lf 1005,9 hPa 0,2 l/m 0,00 h 0,50 h 18 W/m 36,8 km/h (5 Bft) 94,53 %
22.02.2016 09:00 9,4 C 9,2 C 8,0 C 95 % 15 lf 1005,6 hPa 0,2 l/m 0,00 h 0,53 h 71 W/m 39,4 km/h (6 Bft) 98,48 %
22.02.2016 10:00 9,8 C 9,7 C 8,6 C 96 % 15 lf 1005,4 hPa 0,0 l/m 0,00 h 0,33 h 86 W/m 38,6 km/h (5 Bft) 94,12 %
22.02.2016 11:00 9,6 C 9,4 C 8,3 C 96 % 15 lf 1005,5 hPa 0,4 l/m 0,00 h 1,00 h 111 W/m 39,4 km/h (6 Bft) 95,30 %
22.02.2016 12:00 8,3 C 7,6 C 6,5 C 95 % 15 lf 1006,1 hPa 2,8 l/m 0,00 h 0,93 h 53 W/m 17,6 km/h (3 Bft) 97,72 %
22.02.2016 13:00 7,2 C 7,2 C 6,1 C 96 % 15 lf 1006,2 hPa 1,0 l/m 0,00 h 0,50 h 90 W/m 12,9 km/h (3 Bft) 95,75 %
22.02.2016 14:00 7,0 C 7,2 C 6,0 C 96 % 15 lf 1006,4 hPa 0,8 l/m 0,00 h 0,20 h 91 W/m 14,4 km/h (3 Bft) 94,81 %
22.02.2016 15:00 6,0 C 5,7 C 4,5 C 96 % 14 lf 1007,0 hPa 1,0 l/m 0,00 h 0,50 h 64 W/m 24,2 km/h (4 Bft) 96,73 %
22.02.2016 16:00 4,8 C 4,6 C 3,5 C 96 % 13 lf 1007,2 hPa 1,4 l/m 0,00 h 0,87 h 34 W/m 20,7 km/h (4 Bft) 95,79 %
22.02.2016 17:00 4,1 C 3,9 C 3,0 C 96 % 13 lf 1007,7 hPa 1,6 l/m 0,00 h 1,00 h 11 W/m 10,8 km/h (2 Bft) 96,94 %
22.02.2016 18:00 3,3 C 2,9 C 2,0 C 96 % 15 lf 1008,7 hPa 1,0 l/m 0,00 h 1,00 h 0 W/m 13,2 km/h (3 Bft) 95,77 %
22.02.2016 19:00 2,8 C 2,8 C 1,8 C 96 % 15 lf 1009,1 hPa 0,8 l/m 0,00 h 1,00 h 0 W/m 7,3 km/h (2 Bft) 95,24 %
22.02.2016 20:00 2,6 C 2,3 C 1,7 C 96 % 15 lf 1009,1 hPa 0,4 l/m 0,00 h 0,87 h 0 W/m 9,0 km/h (2 Bft) 96,37 %
22.02.2016 21:00 2,6 C 2,7 C 1,7 C 97 % 15 lf 1009,5 hPa 0,4 l/m 0,00 h 1,00 h 0 W/m 11,5 km/h (2 Bft) 95,16 %
22.02.2016 22:00 2,6 C 2,8 C 1,7 C 97 % 15 lf 1009,8 hPa 0,2 l/m 0,00 h 0,57 h 0 W/m 14,8 km/h (3 Bft) 97,22 %
22.02.2016 23:00 2,6 C 2,8 C 1,7 C 97 % 15 lf 1009,9 hPa 0,0 l/m 0,00 h 0,00 h 0 W/m 13,7 km/h (3 Bft) 93,31 %
23.02.2016 00:00 2,7 C 2,8 C 1,7 C 97 % 15 lf 1009,8 hPa 0,0 l/m 0,00 h 0,00 h 0 W/m 13,1 km/h (3 Bft) 97,02 %
23.02.2016 01:00 2,8 C 2,8 C 1,8 C 97 % 15 lf 1009,7 hPa 0,0 l/m 0,00 h 0,00 h 0 W/m 14,4 km/h (3 Bft) 97,93 %
23.02.2016 02:00 3,1 C 3,3 C 2,2 C 97 % 15 lf 1009,8 hPa 0,0 l/m 0,00 h 0,53 h 0 W/m 16,0 km/h (3 Bft) 93,95 %
23.02.2016 03:00 3,1 C 2,9 C 1,9 C 97 % 15 lf 1009,7 hPa 0,0 l/m 0,00 h 0,03 h 0 W/m 15,0 km/h (3 Bft) 96,30 %
23.02.2016 04:00 3,0 C 2,8 C 1,7 C 97 % 15 lf 1009,8 hPa 0,0 l/m 0,00 h 0,13 h 0 W/m 14,3 km/h (3 Bft) 96,14 %
23.02.2016 05:00 3,0 C 2,8 C 1,7 C 97 % 15 lf 1010,1 hPa 0,2 l/m 0,00 h 0,67 h 0 W/m 14,8 km/h (3 Bft) 95,87 %
23.02.2016 06:00 2,8 C 2,8 C 1,7 C 97 % 15 lf 1010,2 hPa 0,0 l/m 0,00 h 0,03 h 0 W/m 15,7 km/h (3 Bft) 97,79 %
23.02.2016 07:00 2,5 C 2,6 C 1,7 C 97 % 15 lf 1010,5 hPa 0,0 l/m 0,00 h 0,03 h 6 W/m 14,6 km/h (3 Bft) 94,66 %
23.02.2016 08:00 2,6 C 2,9 C 1,8 C 97 % 15 lf 1010,8 hPa 0,0 l/m 0,00 h 0,00 h 28 W/m 16,0 km/h (3 Bft) 94,37 %
23.02.2016 09:00 3,1 C 3,9 C 2,6 C 97 % 15 lf 1011,4 hPa 0,0 l/m 0,13 h 0,13 h 88 W/m 17,0 km/h (3 Bft) 96,74 %
23.02.2016 10:00 3,8 C 4,7 C 3,4 C 97 % 14 lf 1011,7 hPa 0,0 l/m 0,00 h 0,07 h 123 W/m 14,9 km/h (3 Bft) 97,65 %
23.02.2016 11:00 4,6 C 6,5 C 4,6 C 96 % 1 lf 1011,9 hPa 0,0 l/m 0,13 h 0,00 h 190 W/m 12,8 km/h (3 Bft) 94,24 %
23.02.2016 12:00 6,0 C 11,0 C 5,6 C 92 % 0 lf 1012,3 hPa 0,0 l/m 0,57 h 0,00 h 262 W/m 17,9 km/h (3 Bft) 95,58 %
23.02.2016 13:00 6,7 C 10,1 C 6,3 C 90 % 0 lf 1012,1 hPa 0,0 l/m 0,47 h 0,00 h 263 W/m 19,3 km/h (3 Bft) 97,40 %
23.02.2016 14:00 4,3 C 3,1 C 1,6 C 88 % 15 lf 1012,7 hPa 0,8 l/m 0,00 h 0,80 h 47 W/m 18,9 km/h (3 Bft) 95,51 %
23.02.2016 15:00 3,6 C 4,7 C 3,0 C 95 % 15 lf 1012,8 hPa 0,4 l/m 0,23 h 0,00 h 133 W/m 13,4 km/h (3 Bft) 94,06 %
23.02.2016 16:00 4,6 C 7,2 C 3,2 C 95 % 10 lf 1013,3 hPa 0,2 l/m 0,63 h 0,00 h 117 W/m 15,1 km/h (3 Bft) 97,85 %
23.02.2016 17:00 4,7 C 4,5 C 3,0 C 95 % 8 lf 1014,0 hPa 0,2 l/m 0,27 h 0,10 h 32 W/m 17,7 km/h (3 Bft) 96,49 %
23.02.2016 18:00 3,9 C 3,3 C 2,0 C 94 % 8 lf 1014,9 hPa 0,2 l/m 0,00 h 0,00 h 6 W/m 12,5 km/h (3 Bft) 94,88 %
23.02.2016 19:00 3,2 C 2,5 C 1,3 C 94 % 9 lf 1015,9 hPa 0,6 l/m 0,00 h 0,00 h 0 W/m 11,0 km/h (2 Bft) 95,93 %
23.02.2016 20:00 2,6 C 2,2 C 1,0 C 94 % 9 lf 1016,7 hPa 0,0 l/m 0,00 h 0,03 h 0 W/m 10,6 km/h (2 Bft) 95,81 %
23.02.2016 21:00 2,2 C 1,6 C 0,5 C 95 % 7 lf 1017,2 hPa 0,0 l/m 0,00 h 0,00 h 0 W/m 9,8 km/h (2 Bft) 97,29 %
23.02.2016 22:00 1,6 C 0,8 C -0,3 C 95 % 9 lf 1017,6 hPa 0,0 l/m 0,00 h 0,00 h 0 W/m 7,1 km/h (2 Bft) 98,13 %
23.02.2016 23:00 1,0 C 0,1 C -0,6 C 95 % 13 lf 1018,1 hPa 0,0 l/m 0,00 h 0,00 h 0 W/m 7,8 km/h (2 Bft) 92,12 %
24.02.2016 00:00 0,8 C -0,1 C -0,8 C 95 % 14 lf 1018,4 hPa 0,0 l/m 0,00 h 0,00 h 0 W/m 7,0 km/h (2 Bft) 98,39 %
24.02.2016 01:00 0,6 C -0,1 C -0,9 C 95 % 15 lf 1018,7 hPa 0,2 l/m 0,00 h 0,00 h 0 W/m 7,3 km/h (2 Bft) 97,15 %
24.02.2016 02:00 0,5 C 0,0 C -0,7 C 96 % 15 lf 1018,9 hPa 0,0 l/m 0,00 h 0,00 h 0 W/m 6,3 km/h (2 Bft) 94,96 %
24.02.2016 03:00 0,4 C -0,1 C -1,0 C 96 % 15 lf 1018,7 hPa 0,0 l/m 0,00 h 0,03 h 0 W/m 5,0 km/h (1 Bft) 95,99 %
24.02.2016 04:00 0,5 C 0,4 C -0,6 C 96 % 15 lf 1018,5 hPa 0,0 l/m 0,00 h 0,00 h 0 W/m 6,9 km/h (2 Bft) 94,60 %
24.02.2016 05:00 0,5 C 0,6 C -0,2 C 97 % 15 lf 1018,5 hPa 0,0 l/m 0,00 h 0,00 h 0 W/m 6,2 km/h (2 Bft) 96,66 %
24.02.2016 06:00 0,8 C 0,8 C 0,0 C 97 % 15 lf 1018,3 hPa 0,0 l/m 0,00 h 0,00 h 0 W/m 8,7 km/h (2 Bft) 96,87 %
24.02.2016 07:00 1,1 C 1,1 C 0,2 C 97 % 15 lf 1018,3 hPa 0,0 l/m 0,00 h 0,00 h 11 W/m 8,0 km/h (2 Bft) 97,22 %
24.02.2016 08:00 1,3 C 1,6 C 0,6 C 97 % 15 lf 1018,8 hPa 0,0 l/m 0,30 h 0,00 h 75 W/m 7,6 km/h (2 Bft) 93,88 %
24.02.2016 09:00 2,2 C 9,2 C 2,1 C 98 % 12 lf 1018,7 hPa 0,0 l/m 0,93 h 0,00 h 228 W/m 9,4 km/h (2 Bft) 96,44 %
24.02.2016 10:00 3,5 C 9,0 C 2,7 C 98 % 0 lf 1018,6 hPa 0,0 l/m 0,43 h 0,00 h 256 W/m 13,0 km/h (3 Bft) 97,15 %
24.02.2016 11:00 5,6 C 13,9 C 6,0 C 93 % 0 lf 1018,1 hPa 0,0 l/m 0,87 h 0,00 h 452 W/m 13,9 km/h (3 Bft) 94,88 %
24.02.2016 12:00 6,8 C 11,7 C 6,3 C 79 % 0 lf 1017,7 hPa 0,0 l/m 0,40 h 0,00 h 314 W/m 15,9 km/h (3 Bft) 96,37 %
24.02.2016 13:00 6,7 C 13,6 C 5,8 C 75 % 0 lf 1016,7 hPa 0,0 l/m 0,73 h 0,00 h 469 W/m 16,9 km/h (3 Bft) 96,80 %
24.02.2016 14:00 6,1 C 9,2 C 4,8 C 74 % 0 lf 1015,9 hPa 0,0 l/m 0,37 h 0,00 h 255 W/m 16,4 km/h (3 Bft) 96,01 %
24.02.2016 15:00 6,3 C 9,9 C 5,1 C 70 % 0 lf 1015,2 hPa 0,0 l/m 0,30 h 0,00 h 175 W/m 11,2 km/h (2 Bft) 95,44 %
24.02.2016 16:00 6,3 C 9,6 C 4,1 C 70 % 0 lf 1014,8 hPa 0,0 l/m 0,50 h 0,00 h 119 W/m 9,4 km/h (2 Bft) 94,51 %
24.02.2016 17:00 5,3 C 4,2 C 2,2 C 72 % 0 lf 1014,3 hPa 0,0 l/m 0,00 h 0,00 h 25 W/m 5,8 km/h (2 Bft) 96,58 %
24.02.2016 18:00 3,9 C 2,4 C 1,0 C 76 % 0 lf 1014,3 hPa 0,0 l/m 0,00 h 0,00 h 6 W/m 4,1 km/h (1 Bft) 96,99 %
24.02.2016 19:00 2,3 C 0,4 C -0,8 C 81 % 0 lf 1014,2 hPa 0,0 l/m 0,00 h 0,00 h 0 W/m 1,4 km/h (1 Bft) 95,45 %
24.02.2016 20:00 1,3 C 0,4 C -0,7 C 85 % 0 lf 1014,0 hPa 0,0 l/m 0,00 h 0,00 h 0 W/m 0,0 km/h (0 Bft) 92,66 %
24.02.2016 21:00 0,7 C -0,1 C -1,2 C 87 % 0 lf 1014,0 hPa 0,0 l/m 0,00 h 0,00 h 0 W/m 0,0 km/h (0 Bft) 96,03 %
24.02.2016 22:00 0,2 C -1,3 C -2,1 C 88 % 2 lf 1014,0 hPa 0,0 l/m 0,00 h 0,00 h 0 W/m 0,0 km/h (0 Bft) 97,02 %
24.02.2016 23:00 -0,6 C -2,1 C -2,8 C 89 % 8 lf 1013,7 hPa 0,0 l/m 0,00 h 0,00 h 0 W/m 0,6 km/h (0 Bft) 94,57 %
25.02.2016 00:00 -1,4 C -2,3 C -3,3 C 90 % 13 lf 1013,6 hPa 0,0 l/m 0,00 h 0,00 h 0 W/m 0,1 km/h (0 Bft) 97,12 %
25.02.2016 01:00 -1,8 C -2,5 C -3,3 C 91 % 15 lf 1013,3 hPa 0,0 l/m 0,00 h 0,00 h 0 W/m 1,6 km/h (1 Bft) 95,38 %
25.02.2016 02:00 -2,1 C -3,5 C -3,9 C 92 % 3 lf 1013,1 hPa 0,0 l/m 0,00 h 0,00 h 0 W/m 0,0 km/h (0 Bft) 94,64 %
25.02.2016 03:00 -2,4 C -3,4 C -3,6 C 93 % 0 lf 1012,7 hPa 0,0 l/m 0,00 h 0,00 h 0 W/m 3,9 km/h (1 Bft) 97,02 %
25.02.2016 04:00 -2,2 C -2,9 C -3,4 C 94 % 0 lf 1012,5 hPa 0,0 l/m 0,00 h 0,00 h 0 W/m 5,9 km/h (2 Bft) 97,01 %
25.02.2016 05:00 -2,2 C -2,8 C -3,3 C 94 % 0 lf 1012,7 hPa 0,0 l/m 0,00 h 0,03 h 0 W/m 4,0 km/h (1 Bft) 96,22 %
25.02.2016 06:00 -2,1 C -2,3 C -3,0 C 95 % 0 lf 1012,7 hPa 0,0 l/m 0,00 h 0,00 h 0 W/m 6,2 km/h (2 Bft) 94,52 %
25.02.2016 07:00 -1,9 C -2,3 C -3,1 C 95 % 0 lf 1012,8 hPa 0,0 l/m 0,00 h 0,00 h 11 W/m 5,9 km/h (2 Bft) 96,01 %
25.02.2016 08:00 -1,7 C -1,5 C -2,3 C 95 % 1 lf 1013,1 hPa 0,0 l/m 0,58 h 0,00 h 100 W/m 5,9 km/h (2 Bft) 97,19 %
25.02.2016 09:00 -0,2 C 5,7 C 0,7 C 96 % 11 lf 1013,4 hPa 0,2 l/m 0,90 h 0,00 h 222 W/m 10,1 km/h (2 Bft) 95,16 %
25.02.2016 10:00 2,0 C 9,8 C 3,1 C 96 % 14 lf 1013,6 hPa 0,0 l/m 0,83 h 0,00 h 330 W/m 15,7 km/h (3 Bft) 97,15 %
25.02.2016 11:00 4,3 C 13,7 C 7,0 C 88 % 0 lf 1013,6 hPa 0,0 l/m 1,00 h 0,00 h 477 W/m 18,4 km/h (3 Bft) 97,06 %
25.02.2016 12:00 6,0 C 12,1 C 5,9 C 76 % 0 lf 1013,6 hPa 0,0 l/m 0,83 h 0,00 h 415 W/m 20,6 km/h (4 Bft) 93,06 %
25.02.2016 13:00 5,3 C 7,6 C 4,4 C 76 % 0 lf 1013,6 hPa 0,0 l/m 0,07 h 0,00 h 177 W/m 20,3 km/h (4 Bft) 98,41 %
25.02.2016 14:00 6,0 C 10,0 C 5,2 C 72 % 0 lf 1013,5 hPa 0,0 l/m 0,50 h 0,10 h 269 W/m 20,4 km/h (4 Bft) 96,21 %
25.02.2016 15:00 4,4 C 5,5 C 3,4 C 80 % 0 lf 1013,6 hPa 0,0 l/m 0,13 h 0,00 h 136 W/m 18,3 km/h (3 Bft) 93,07 %
25.02.2016 16:00 3,8 C 5,7 C 2,8 C 83 % 0 lf 1013,6 hPa 0,0 l/m 0,53 h 0,00 h 117 W/m 15,1 km/h (3 Bft) 97,60 %
25.02.2016 17:00 3,3 C 2,7 C 1,4 C 86 % 11 lf 1013,9 hPa 0,4 l/m 0,00 h 0,47 h 18 W/m 14,4 km/h (3 Bft) 96,13 %
25.02.2016 18:00 1,9 C 0,9 C -0,3 C 89 % 15 lf 1014,0 hPa 0,0 l/m 0,00 h 0,00 h 8 W/m 4,3 km/h (1 Bft) 95,81 %
25.02.2016 19:00 1,1 C 0,7 C -0,4 C 91 % 15 lf 1014,5 hPa 0,0 l/m 0,00 h 0,00 h 0 W/m 5,1 km/h (1 Bft) 96,29 %
25.02.2016 20:00 1,4 C 1,4 C 0,4 C 93 % 15 lf 1014,7 hPa 0,0 l/m 0,00 h 0,03 h 0 W/m 11,9 km/h (2 Bft) 94,52 %
25.02.2016 21:00 1,3 C 0,7 C -0,4 C 94 % 15 lf 1014,9 hPa 0,0 l/m 0,00 h 0,00 h 0 W/m 10,8 km/h (2 Bft) 97,01 %
25.02.2016 22:00 0,9 C 0,5 C -0,6 C 94 % 15 lf 1015,1 hPa 0,0 l/m 0,00 h 0,00 h 0 W/m 8,2 km/h (2 Bft) 97,30 %
25.02.2016 23:00 0,4 C -0,4 C -1,3 C 94 % 15 lf 1015,1 hPa 0,0 l/m 0,00 h 0,00 h 0 W/m 8,3 km/h (2 Bft) 94,66 %
26.02.2016 00:00 -0,1 C -0,9 C -2,0 C 94 % 15 lf 1015,0 hPa 0,0 l/m 0,00 h 0,00 h 0 W/m 6,7 km/h (2 Bft) 95,05 %
26.02.2016 01:00 -0,5 C -1,0 C -2,1 C 94 % 15 lf 1014,9 hPa 0,0 l/m 0,00 h 0,00 h 0 W/m 7,9 km/h (2 Bft) 97,43 %
26.02.2016 02:00 -0,7 C -1,3 C -2,2 C 95 % 15 lf 1014,6 hPa 0,0 l/m 0,00 h 0,00 h 0 W/m 6,6 km/h (2 Bft) 96,22 %
26.02.2016 03:00 -0,9 C -0,9 C -1,9 C 95 % 2 lf 1014,3 hPa 0,0 l/m 0,00 h 0,00 h 0 W/m 6,5 km/h (2 Bft) 96,01 %
26.02.2016 04:00 -0,6 C -0,5 C -1,3 C 96 % 2 lf 1013,9 hPa 0,0 l/m 0,00 h 0,00 h 0 W/m 5,5 km/h (1 Bft) 95,57 %
26.02.2016 05:00 -0,2 C 0,0 C -1,1 C 96 % 3 lf 1013,6 hPa 0,0 l/m 0,00 h 0,00 h 0 W/m 4,5 km/h (1 Bft) 96,80 %
26.02.2016 06:00 -0,1 C 0,0 C -1,1 C 96 % 10 lf 1013,3 hPa 0,0 l/m 0,00 h 0,00 h 0 W/m 5,8 km/h (2 Bft) 95,66 %
26.02.2016 07:00 0,2 C 0,3 C -0,7 C 97 % 15 lf 1013,2 hPa 0,0 l/m 0,00 h 0,00 h 11 W/m 5,0 km/h (1 Bft) 93,78 %
26.02.2016 08:00 0,4 C 0,8 C -0,3 C 97 % 15 lf 1013,4 hPa 0,0 l/m 0,00 h 0,00 h 40 W/m 4,9 km/h (1 Bft) 95,66 %
26.02.2016 09:00 0,8 C 1,7 C 0,6 C 97 % 15 lf 1013,7 hPa 0,0 l/m 0,00 h 0,00 h 87 W/m 8,8 km/h (2 Bft) 94,31 %
26.02.2016 10:00 1,7 C 3,9 C 2,0 C 97 % 14 lf 1013,4 hPa 0,0 l/m 0,33 h 0,00 h 190 W/m 10,4 km/h (2 Bft) 98,67 %
26.02.2016 11:00 2,9 C 5,0 C 3,2 C 96 % 1 lf 1013,3 hPa 0,0 l/m 0,20 h 0,00 h 218 W/m 11,6 km/h (2 Bft) 95,95 %
26.02.2016 12:00 4,0 C 7,2 C 4,5 C 91 % 0 lf 1012,8 hPa 0,0 l/m 0,87 h 0,00 h 300 W/m 9,6 km/h (2 Bft) 96,30 %
26.02.2016 13:00 5,3 C 8,2 C 5,1 C 73 % 0 lf 1012,1 hPa 0,0 l/m 0,67 h 0,00 h 269 W/m 11,7 km/h (2 Bft) 96,66 %
26.02.2016 14:00 5,4 C 6,9 C 5,1 C 64 % 0 lf 1011,5 hPa 0,0 l/m 0,43 h 0,00 h 211 W/m 10,6 km/h (2 Bft) 95,44 %
26.02.2016 15:00 5,3 C 6,4 C 4,5 C 62 % 0 lf 1011,0 hPa 0,0 l/m 0,53 h 0,00 h 175 W/m 14,3 km/h (3 Bft) 95,22 %
26.02.2016 16:00 4,8 C 5,1 C 3,7 C 65 % 0 lf 1010,4 hPa 0,0 l/m 0,00 h 0,00 h 81 W/m 10,1 km/h (2 Bft) 96,26 %
26.02.2016 17:00 4,2 C 4,4 C 2,9 C 66 % 0 lf 1010,0 hPa 0,0 l/m 0,00 h 0,00 h 20 W/m 10,3 km/h (2 Bft) 94,55 %
26.02.2016 18:00 3,9 C 3,9 C 2,4 C 69 % 0 lf 1010,0 hPa 0,0 l/m 0,00 h 0,00 h 5 W/m 8,3 km/h (2 Bft) 97,65 %
26.02.2016 19:00 3,6 C 3,7 C 2,1 C 72 % 0 lf 1010,1 hPa 0,0 l/m 0,00 h 0,00 h 0 W/m 9,2 km/h (2 Bft) 97,52 %
26.02.2016 20:00 3,2 C 3,3 C 1,7 C 75 % 0 lf 1009,9 hPa 0,0 l/m 0,00 h 0,00 h 0 W/m 7,2 km/h (2 Bft) 93,82 %
26.02.2016 21:00 3,0 C 3,0 C 1,5 C 75 % 0 lf 1009,8 hPa 0,0 l/m 0,00 h 0,00 h 0 W/m 6,2 km/h (2 Bft) 95,42 %
26.02.2016 22:00 2,7 C 2,8 C 1,3 C 77 % 0 lf 1009,6 hPa 0,0 l/m 0,00 h 0,00 h 0 W/m 8,6 km/h (2 Bft) 96,10 %
26.02.2016 23:00 2,3 C 2,2 C 1,0 C 79 % 0 lf 1009,4 hPa 0,0 l/m 0,00 h 0,00 h 0 W/m 7,9 km/h (2 Bft) 96,74 %
27.02.2016 00:00 1,8 C 0,9 C -0,3 C 80 % 0 lf 1009,2 hPa 0,0 l/m 0,00 h 0,00 h 0 W/m 3,8 km/h (1 Bft) 94,29 %
27.02.2016 01:00 1,1 C 1,0 C -0,1 C 83 % 0 lf 1009,1 hPa 0,0 l/m 0,00 h 0,00 h 0 W/m 4,6 km/h (1 Bft) 95,87 %
27.02.2016 02:00 0,9 C 0,9 C -0,0 C 85 % 0 lf 1009,0 hPa 0,0 l/m 0,00 h 0,00 h 0 W/m 5,5 km/h (1 Bft) 96,58 %
27.02.2016 03:00 0,7 C 0,8 C -0,4 C 85 % 0 lf 1008,4 hPa 0,0 l/m 0,00 h 0,00 h 0 W/m 8,3 km/h (2 Bft) 95,51 %
27.02.2016 04:00 0,8 C 0,9 C -0,3 C 85 % 0 lf 1008,1 hPa 0,0 l/m 0,00 h 0,00 h 0 W/m 5,6 km/h (1 Bft) 97,54 %
27.02.2016 05:00 0,8 C 1,1 C -0,1 C 84 % 0 lf 1008,1 hPa 0,0 l/m 0,00 h 0,00 h 0 W/m 6,5 km/h (2 Bft) 95,48 %
27.02.2016 06:00 0,7 C 0,4 C -0,8 C 84 % 0 lf 1007,9 hPa 0,0 l/m 0,00 h 0,00 h 0 W/m 10,0 km/h (2 Bft) 94,80 %
27.02.2016 07:00 0,2 C -0,1 C -1,3 C 85 % 0 lf 1008,2 hPa 0,0 l/m 0,33 h 0,00 h 20 W/m 9,6 km/h (2 Bft) 97,65 %
27.02.2016 08:00 0,0 C 1,1 C -0,9 C 85 % 0 lf 1008,6 hPa 0,0 l/m 1,00 h 0,00 h 112 W/m 12,4 km/h (3 Bft) 96,36 %
27.02.2016 09:00 2,4 C 11,2 C 3,6 C 80 % 0 lf 1009,0 hPa 0,0 l/m 1,00 h 0,00 h 276 W/m 19,4 km/h (3 Bft) 95,52 %
27.02.2016 10:00 5,1 C 14,3 C 5,2 C 70 % 0 lf 1008,9 hPa 0,0 l/m 1,00 h 0,00 h 403 W/m 22,7 km/h (4 Bft) 96,87 %
27.02.2016 11:00 6,7 C 15,2 C 9,3 C 63 % 0 lf 1008,7 hPa 0,0 l/m 1,00 h 0,00 h 489 W/m 27,8 km/h (4 Bft) 94,02 %
27.02.2016 12:00 7,9 C 15,6 C 7,0 C 57 % 0 lf 1008,7 hPa 0,2 l/m 1,00 h 0,00 h 520 W/m 28,4 km/h (4 Bft) 97,44 %
27.02.2016 13:00 8,7 C 16,2 C 6,6 C 53 % 0 lf 1008,5 hPa 0,0 l/m 1,00 h 0,00 h 508 W/m 28,5 km/h (4 Bft) 97,16 %
27.02.2016 14:00 8,8 C 14,9 C 6,5 C 51 % 0 lf 1008,4 hPa 0,0 l/m 1,00 h 0,00 h 441 W/m 29,5 km/h (5 Bft) 95,80 %
27.02.2016 15:00 8,5 C 13,3 C 5,9 C 51 % 0 lf 1008,7 hPa 0,0 l/m 1,00 h 0,00 h 317 W/m 29,4 km/h (5 Bft) 93,02 %
27.02.2016 16:00 7,2 C 9,3 C 4,8 C 54 % 0 lf 1008,8 hPa 0,0 l/m 0,97 h 0,00 h 144 W/m 30,4 km/h (5 Bft) 98,01 %
27.02.2016 17:00 5,7 C 5,6 C 3,5 C 59 % 0 lf 1009,2 hPa 0,0 l/m 0,27 h 0,00 h 40 W/m 24,5 km/h (4 Bft) 96,37 %
27.02.2016 18:00 4,3 C 3,6 C 1,9 C 65 % 0 lf 1009,9 hPa 0,0 l/m 0,00 h 0,00 h 7 W/m 19,1 km/h (3 Bft) 94,59 %
27.02.2016 19:00 3,2 C 2,8 C 1,1 C 68 % 0 lf 1010,7 hPa 0,0 l/m 0,00 h 0,00 h 0 W/m 19,0 km/h (3 Bft) 95,89 %
27.02.2016 20:00 2,8 C 2,6 C 1,0 C 70 % 0 lf 1011,2 hPa 0,0 l/m 0,00 h 0,00 h 0 W/m 23,4 km/h (4 Bft) 96,37 %
27.02.2016 21:00 2,3 C 2,2 C 0,6 C 72 % 0 lf 1011,5 hPa 0,0 l/m 0,00 h 0,00 h 0 W/m 24,3 km/h (4 Bft) 96,73 %
27.02.2016 22:00 1,9 C 1,7 C 0,2 C 73 % 0 lf 1011,9 hPa 0,0 l/m 0,00 h 0,00 h 0 W/m 21,5 km/h (4 Bft) 96,58 %
27.02.2016 23:00 1,4 C 1,1 C -0,3 C 75 % 0 lf 1012,3 hPa 0,0 l/m 0,00 h 0,00 h 0 W/m 21,0 km/h (4 Bft) 93,88 %
28.02.2016 00:00 0,9 C 0,6 C -0,7 C 76 % 0 lf 1012,4 hPa 0,0 l/m 0,00 h 0,00 h 0 W/m 19,6 km/h (3 Bft) 97,68 %
28.02.2016 01:00 0,5 C 0,1 C -1,1 C 78 % 0 lf 1012,5 hPa 0,0 l/m 0,00 h 0,00 h 0 W/m 18,2 km/h (3 Bft) 96,78 %
28.02.2016 02:00 0,1 C -0,3 C -1,5 C 80 % 0 lf 1013,2 hPa 0,0 l/m 0,00 h 0,00 h 0 W/m 18,0 km/h (3 Bft) 95,83 %
28.02.2016 03:00 -0,3 C -0,7 C -1,7 C 82 % 0 lf 1013,3 hPa 0,0 l/m 0,00 h 0,00 h 0 W/m 16,1 km/h (3 Bft) 96,52 %
28.02.2016 04:00 -0,8 C -1,4 C -2,1 C 83 % 0 lf 1013,6 hPa 0,0 l/m 0,00 h 0,00 h 0 W/m 11,7 km/h (2 Bft) 95,22 %
28.02.2016 05:00 -1,4 C -1,7 C -2,8 C 85 % 0 lf 1014,0 hPa 0,0 l/m 0,00 h 0,00 h 0 W/m 11,7 km/h (2 Bft) 96,23 %
28.02.2016 06:00 -1,7 C -2,0 C -2,8 C 86 % 0 lf 1014,6 hPa 0,0 l/m 0,00 h 0,00 h 0 W/m 12,9 km/h (3 Bft) 98,99 %
28.02.2016 07:00 -1,9 C -2,1 C -2,8 C 87 % 0 lf 1014,9 hPa 0,0 l/m 0,33 h 0,00 h 21 W/m 12,3 km/h (3 Bft) 96,09 %
28.02.2016 08:00 -1,4 C 0,1 C -1,8 C 88 % 0 lf 1015,8 hPa 0,0 l/m 1,00 h 0,00 h 127 W/m 11,9 km/h (2 Bft) 94,81 %
28.02.2016 09:00 0,2 C 5,4 C 0,7 C 85 % 0 lf 1016,6 hPa 0,0 l/m 1,00 h 0,00 h 234 W/m 15,7 km/h (3 Bft) 95,84 %
28.02.2016 10:00 2,5 C 8,8 C 2,8 C 77 % 0 lf 1016,5 hPa 0,0 l/m 1,00 h 0,00 h 398 W/m 25,2 km/h (4 Bft) 97,72 %
28.02.2016 11:00 4,9 C 12,7 C 6,9 C 66 % 0 lf 1016,6 hPa 0,0 l/m 1,00 h 0,00 h 480 W/m 31,8 km/h (5 Bft) 94,48 %
28.02.2016 12:00 6,0 C 11,1 C 5,2 C 60 % 0 lf 1016,6 hPa 0,0 l/m 1,00 h 0,00 h 349 W/m 34,7 km/h (5 Bft) 96,43 %
28.02.2016 13:00 6,8 C 12,1 C 5,6 C 58 % 0 lf 1016,6 hPa 0,0 l/m 1,00 h 0,00 h 385 W/m 32,6 km/h (5 Bft) 96,37 %
28.02.2016 14:00 6,8 C 9,8 C 5,8 C 58 % 0 lf 1016,9 hPa 0,0 l/m 1,00 h 0,00 h 282 W/m 32,6 km/h (5 Bft) 95,82 %
28.02.2016 15:00 6,7 C 8,7 C 5,7 C 58 % 0 lf 1017,4 hPa 0,0 l/m 1,00 h 0,00 h 227 W/m 31,7 km/h (5 Bft) 97,35 %
28.02.2016 16:00 6,1 C 6,8 C 4,6 C 59 % 0 lf 1017,4 hPa 0,0 l/m 0,53 h 0,00 h 123 W/m 34,2 km/h (5 Bft) 93,81 %
28.02.2016 17:00 4,8 C 4,9 C 3,3 C 62 % 0 lf 1017,9 hPa 0,0 l/m 0,00 h 0,00 h 39 W/m 30,9 km/h (5 Bft) 96,29 %
28.02.2016 18:00 4,2 C 4,0 C 2,5 C 65 % 0 lf 1019,1 hPa 0,0 l/m 0,00 h 0,00 h 7 W/m 26,0 km/h (4 Bft) 96,43 %
28.02.2016 19:00 3,7 C 3,8 C 2,2 C 66 % 0 lf 1019,8 hPa 0,0 l/m 0,00 h 0,00 h 0 W/m 27,3 km/h (4 Bft) 96,62 %
28.02.2016 20:00 3,5 C 3,4 C 1,8 C 66 % 0 lf 1020,4 hPa 0,0 l/m 0,00 h 0,00 h 0 W/m 27,1 km/h (4 Bft) 95,26 %
28.02.2016 21:00 3,1 C 2,8 C 1,5 C 68 % 0 lf 1020,4 hPa 0,0 l/m 0,00 h 0,00 h 0 W/m 18,9 km/h (3 Bft) 95,02 %
28.02.2016 22:00 1,9 C 1,5 C 0,5 C 72 % 0 lf 1020,4 hPa 0,0 l/m 0,00 h 0,00 h 0 W/m 15,9 km/h (3 Bft) 96,25 %
28.02.2016 23:00 1,1 C 0,8 C -0,3 C 76 % 0 lf 1020,8 hPa 0,0 l/m 0,00 h 0,00 h 0 W/m 15,6 km/h (3 Bft) 97,27 %
Min-Datum _ 25.02.16 25.02.16 25.02.16 27.02.16 22.02.16 22.02.16 - - - - 24.02.16 26.02.16
_ Min-Zeit 03:08 02:28 02:02 14:08 00:00 10:00 - - - - 02:58 07:30
Minimum _ -2,4 C -3,9 C -3,9 C 50 % 0 lf 1005,2 hPa - - - - 0,0 km/h (0 Bft) 0,00 %
Max-Datum _ 22.02.16 24.02.16 27.02.16 24.02.16 22.02.16 28.02.16 22.02.16 23.02.16 22.02.16 24.02.16 22.02.16 22.02.16
_ Max-Zeit 00:00 11:16 11:40 09:20 06:30 23:50 12:38 09:20 04:52 11:42 03:34 00:02
Maximum _ 11,6 C 18,3 C 10,6 C 98 % 15 lf 1020,9 hPa 2,8 l/m 0,03 h 0,03 h 752 W/m 66,9 km/h
W-SW (8 Bft)
100,00 %
Durchschnitt _ 3,2 C 4,2 C 2,1 C 85 % 6 lf 1012,6 hPa #15,8 l/m #34:07 h #14:52 h 170 W/m 15,4 km/h (3 Bft) 96,01 %
© 2016 W. Hausmann